Time;durP1;ratioP1;P1;durP2;ratioP2;P2;SDS_P1;SDS_P2;PMS_P1;PMS_P2;Temp;Humidity;BMP_temperature;BMP_pressure;BME280_temperature;BME280_humidity;BME280_pressure;Samples;Min_cycle;Max_cycle;Signal;HPM_P1;HPM_P2
2021/06/25 00:02:03;;;;;;;25.73;16.80;;;11.60;99.90;;;;;;5149419;27;20296;-67
2021/06/25 00:04:32;;;;;;;29.70;17.47;;;11.70;99.90;;;;;;5161379;27;20275;-66
2021/06/25 00:07:00;;;;;;;30.07;17.77;;;11.60;99.90;;;;;;5148582;27;20202;-66
2021/06/25 00:09:30;;;;;;;28.00;18.03;;;11.60;99.90;;;;;;5158834;27;20240;-66
2021/06/25 00:11:58;;;;;;;26.27;18.13;;;11.60;99.90;;;;;;5149987;27;20216;-66
2021/06/25 00:14:27;;;;;;;28.40;17.57;;;11.50;99.90;;;;;;5150738;27;20278;-67
2021/06/25 00:16:55;;;;;;;26.60;17.70;;;11.50;99.90;;;;;;5149787;27;20227;-66
2021/06/25 00:19:23;;;;;;;25.37;17.73;;;11.40;99.90;;;;;;5148718;27;20189;-66
2021/06/25 00:21:52;;;;;;;24.03;17.37;;;11.40;99.90;;;;;;5154469;27;20276;-66
2021/06/25 00:24:20;;;;;;;24.87;18.10;;;11.40;99.90;;;;;;5141773;27;20691;-67
2021/06/25 00:26:50;;;;;;;27.57;17.93;;;11.40;99.90;;;;;;5153916;27;20260;-67
2021/06/25 00:29:19;;;;;;;26.97;16.40;;;11.40;99.90;;;;;;5148406;27;20185;-66
2021/06/25 00:31:48;;;;;;;25.17;16.33;;;11.40;99.90;;;;;;5153941;27;20220;-66
2021/06/25 00:34:17;;;;;;;24.87;17.17;;;11.30;99.90;;;;;;5150108;27;20260;-66
2021/06/25 00:36:46;;;;;;;25.03;17.27;;;11.30;99.90;;;;;;5153924;27;20220;-66
2021/06/25 00:39:15;;;;;;;26.97;16.77;;;11.30;99.90;;;;;;5149528;27;20217;-66
2021/06/25 00:41:44;;;;;;;21.00;15.67;;;11.30;99.90;;;;;;5147847;27;20213;-66
2021/06/25 00:44:18;;;;;;;26.90;17.23;;;11.20;99.90;;;;;;5157640;27;20660;-66
2021/06/25 00:46:47;;;;;;;23.43;16.67;;;11.20;99.90;;;;;;5151831;27;20261;-66
2021/06/25 00:49:16;;;;;;;22.53;16.40;;;11.20;99.90;;;;;;5158020;27;20233;-66
2021/06/25 00:51:45;;;;;;;23.93;16.47;;;11.10;99.90;;;;;;5149890;27;20734;-66
2021/06/25 00:54:15;;;;;;;27.03;16.77;;;11.10;99.90;;;;;;5143608;27;20279;-66
2021/06/25 00:56:43;;;;;;;25.33;17.63;;;11.10;99.90;;;;;;5151879;27;20224;-66
2021/06/25 00:59:12;;;;;;;29.20;17.17;;;11.10;99.90;;;;;;5155767;27;20710;-66
2021/06/25 01:01:42;;;;;;;24.53;16.70;;;11.10;99.90;;;;;;5146281;27;20284;-67
2021/06/25 01:04:13;;;;;;;22.47;16.07;;;11.10;99.90;;;;;;5154731;27;20619;-66
2021/06/25 01:06:42;;;;;;;21.60;15.80;;;11.20;99.90;;;;;;5146844;27;20185;-66
2021/06/25 01:09:10;;;;;;;23.10;15.70;;;11.20;99.90;;;;;;5154683;27;20212;-66
2021/06/25 01:11:40;;;;;;;26.30;16.93;;;11.20;99.90;;;;;;5147784;27;20211;-66
2021/06/25 01:14:08;;;;;;;23.50;15.97;;;11.20;99.90;;;;;;5142549;27;20720;-66
2021/06/25 01:16:36;;;;;;;26.63;15.77;;;11.20;99.90;;;;;;5146900;27;20311;-66
2021/06/25 01:19:13;;;;;;;20.53;16.07;;;11.20;99.90;;;;;;5148262;27;20719;-66
2021/06/25 01:21:45;;;;;;;24.97;16.00;;;11.20;99.90;;;;;;5144828;27;20189;-66
2021/06/25 01:24:13;;;;;;;21.17;14.43;;;11.30;99.90;;;;;;5138774;27;20547;-66
2021/06/25 01:26:41;;;;;;;21.37;15.00;;;11.30;99.90;;;;;;5146101;27;20723;-66
2021/06/25 01:29:10;;;;;;;24.30;15.90;;;11.30;99.90;;;;;;5149148;27;20201;-66
2021/06/25 01:31:38;;;;;;;23.90;15.87;;;11.30;99.90;;;;;;5148451;27;20192;-66
2021/06/25 01:34:07;;;;;;;24.00;15.60;;;11.40;99.90;;;;;;5163005;27;20219;-66
2021/06/25 01:36:38;;;;;;;23.77;14.63;;;11.50;99.90;;;;;;5149042;27;20221;-66
2021/06/25 01:39:08;;;;;;;18.90;13.93;;;11.60;99.90;;;;;;5161462;27;20300;-66
2021/06/25 01:41:40;;;;;;;17.90;13.77;;;11.70;99.90;;;;;;5149839;27;20818;-66
2021/06/25 01:44:10;;;;;;;19.37;14.23;;;11.70;99.90;;;;;;5156891;27;20273;-66
2021/06/25 01:46:41;;;;;;;19.43;13.87;;;11.70;99.90;;;;;;5150959;27;20301;-66
2021/06/25 01:49:12;;;;;;;21.03;14.50;;;11.70;99.90;;;;;;5147436;27;20192;-66
2021/06/25 01:51:40;;;;;;;19.10;14.20;;;11.70;99.90;;;;;;5147600;27;20250;-66
2021/06/25 01:54:10;;;;;;;20.93;14.77;;;11.80;99.90;;;;;;5148559;27;20288;-66
2021/06/25 01:56:39;;;;;;;19.13;14.43;;;11.80;99.90;;;;;;5146070;27;20215;-66
2021/06/25 02:02:10;;;;;;;22.20;14.37;;;11.70;99.90;;;;;;5144271;23;20244;-66
2021/06/25 02:04:39;;;;;;;21.53;14.97;;;11.70;99.90;;;;;;4891781;29;20292;-66
2021/06/25 02:07:07;;;;;;;22.77;15.83;;;11.70;99.90;;;;;;4890253;29;20187;-66
2021/06/25 02:09:37;;;;;;;24.80;15.67;;;11.80;99.90;;;;;;4892594;29;20231;-66
2021/06/25 02:12:06;;;;;;;20.67;15.50;;;11.70;99.90;;;;;;4890187;29;20669;-66
2021/06/25 02:14:34;;;;;;;21.67;15.77;;;11.70;99.90;;;;;;4890214;29;20208;-66
2021/06/25 02:17:03;;;;;;;27.23;15.77;;;11.70;99.90;;;;;;4890598;29;20222;-66
2021/06/25 02:19:32;;;;;;;25.67;16.30;;;11.70;99.90;;;;;;4887502;29;20289;-66
2021/06/25 02:22:00;;;;;;;23.87;16.37;;;11.70;99.90;;;;;;4881667;29;20583;-66
2021/06/25 02:24:29;;;;;;;27.30;17.47;;;11.80;99.90;;;;;;4891234;29;20194;-66
2021/06/25 02:26:59;;;;;;;24.10;17.10;;;11.80;99.90;;;;;;4891240;29;20197;-66
2021/06/25 02:29:27;;;;;;;26.37;17.23;;;11.80;99.90;;;;;;4892174;29;20234;-66
2021/06/25 02:31:55;;;;;;;25.50;17.63;;;11.80;99.90;;;;;;4884586;29;20190;-66
2021/06/25 02:34:24;;;;;;;27.13;17.93;;;11.90;99.90;;;;;;4891219;29;20657;-66
2021/06/25 02:36:52;;;;;;;27.37;16.77;;;12.00;99.90;;;;;;4895274;29;20684;-66
2021/06/25 02:39:20;;;;;;;22.63;16.87;;;12.00;99.90;;;;;;4895085;29;20206;-66
2021/06/25 02:41:49;;;;;;;29.10;17.67;;;12.00;99.90;;;;;;4891670;29;20281;-66
2021/06/25 02:44:18;;;;;;;28.87;17.40;;;12.00;99.90;;;;;;4894758;29;20739;-66
2021/06/25 02:46:46;;;;;;;27.93;18.13;;;12.00;99.90;;;;;;4894930;29;20653;-66
2021/06/25 02:49:16;;;;;;;29.23;18.33;;;12.00;99.90;;;;;;4893802;29;20190;-66
2021/06/25 02:51:44;;;;;;;28.87;18.97;;;11.90;99.90;;;;;;4892160;29;20209;-66
2021/06/25 02:54:13;;;;;;;30.07;18.67;;;11.90;99.90;;;;;;4891681;29;20747;-66
2021/06/25 02:56:41;;;;;;;27.90;17.43;;;12.00;99.90;;;;;;4892794;29;20214;-66
2021/06/25 02:59:09;;;;;;;29.40;18.03;;;12.00;99.90;;;;;;4895299;29;20276;-66
2021/06/25 03:01:39;;;;;;;26.97;18.50;;;12.00;99.90;;;;;;4894627;29;20266;-66
2021/06/25 03:04:08;;;;;;;28.37;18.53;;;12.10;99.90;;;;;;4893936;29;20205;-66
2021/06/25 03:06:36;;;;;;;28.40;17.80;;;12.10;99.90;;;;;;4891378;29;20293;-66
2021/06/25 03:09:05;;;;;;;32.47;18.63;;;12.20;99.90;;;;;;4895300;29;20201;-66
2021/06/25 03:11:34;;;;;;;27.00;19.07;;;12.30;99.90;;;;;;4891992;29;20198;-66
2021/06/25 03:14:02;;;;;;;30.60;18.83;;;12.30;99.90;;;;;;4884083;29;20234;-66
2021/06/25 03:16:30;;;;;;;26.93;18.57;;;12.30;99.90;;;;;;4891010;29;20229;-66
2021/06/25 03:19:00;;;;;;;27.97;18.10;;;12.30;99.90;;;;;;4894948;29;20238;-66
2021/06/25 03:21:28;;;;;;;32.60;18.33;;;12.30;99.90;;;;;;4891884;29;20665;-66
2021/06/25 03:23:57;;;;;;;27.83;18.43;;;12.40;99.90;;;;;;4894037;29;20200;-66
2021/06/25 03:26:25;;;;;;;27.90;18.03;;;12.40;99.90;;;;;;4893863;29;20186;-66
2021/06/25 03:28:53;;;;;;;27.20;18.37;;;12.50;99.90;;;;;;4893187;29;20229;-66
2021/06/25 03:31:22;;;;;;;30.57;18.17;;;12.40;99.90;;;;;;4894307;29;20772;-66
2021/06/25 03:33:51;;;;;;;27.57;17.47;;;12.50;99.90;;;;;;4895001;29;20206;-66
2021/06/25 03:36:20;;;;;;;28.43;17.93;;;12.50;99.90;;;;;;4883907;29;20219;-66
2021/06/25 03:38:49;;;;;;;28.17;18.70;;;12.50;99.90;;;;;;4891999;29;20568;-66
2021/06/25 03:41:17;;;;;;;33.17;20.07;;;12.60;99.90;;;;;;4890739;29;20869;-66
2021/06/25 03:43:45;;;;;;;26.80;18.43;;;12.60;99.90;;;;;;4890140;29;20261;-66
2021/06/25 03:46:14;;;;;;;30.13;19.40;;;12.70;99.90;;;;;;4894532;29;20632;-66
2021/06/25 03:48:42;;;;;;;28.67;18.00;;;12.70;99.90;;;;;;4893917;29;20197;-66
2021/06/25 03:51:10;;;;;;;30.17;18.67;;;12.60;99.90;;;;;;4893228;29;20304;-66
2021/06/25 03:53:40;;;;;;;28.03;18.80;;;12.60;99.90;;;;;;4889447;29;20194;-66
2021/06/25 03:56:12;;;;;;;28.13;18.37;;;12.60;99.90;;;;;;4891651;29;20202;-66
2021/06/25 03:58:43;;;;;;;30.57;18.70;;;12.70;99.90;;;;;;4890740;29;20198;-66
2021/06/25 04:01:15;;;;;;;24.90;18.47;;;12.70;99.90;;;;;;4892766;29;20225;-66
2021/06/25 04:03:44;;;;;;;30.13;18.00;;;12.70;99.90;;;;;;4893889;29;20197;-66
2021/06/25 04:06:13;;;;;;;32.10;19.07;;;12.70;99.90;;;;;;4885801;29;20212;-66
2021/06/25 04:08:42;;;;;;;35.23;18.23;;;12.70;99.90;;;;;;4892957;29;20197;-66
2021/06/25 04:11:11;;;;;;;29.00;18.53;;;12.80;99.90;;;;;;4890830;29;20289;-66
2021/06/25 04:13:46;;;;;;;25.67;17.53;;;12.80;99.90;;;;;;4889506;29;20611;-66
2021/06/25 04:16:14;;;;;;;26.23;18.80;;;12.80;99.90;;;;;;4891801;29;20190;-66
2021/06/25 04:18:43;;;;;;;27.83;18.73;;;12.80;99.90;;;;;;4888608;29;20865;-66
2021/06/25 04:21:11;;;;;;;26.27;17.87;;;12.80;99.90;;;;;;4890580;29;20202;-66
2021/06/25 04:23:40;;;;;;;28.17;18.97;;;12.90;99.90;;;;;;4890519;29;20277;-66
2021/06/25 04:26:10;;;;;;;28.80;17.73;;;12.90;99.90;;;;;;4891171;29;20197;-66
2021/06/25 04:28:38;;;;;;;31.07;18.73;;;12.90;99.90;;;;;;4891302;29;20198;-66
2021/06/25 04:31:06;;;;;;;26.30;17.43;;;12.90;99.90;;;;;;4894759;29;20284;-66
2021/06/25 04:33:35;;;;;;;27.23;16.63;;;13.00;99.90;;;;;;4892878;29;20209;-66
2021/06/25 04:36:04;;;;;;;27.77;18.43;;;13.00;99.90;;;;;;4892902;29;20198;-67
2021/06/25 04:38:33;;;;;;;29.93;18.03;;;13.00;99.90;;;;;;4892013;29;20245;-66
2021/06/25 04:41:03;;;;;;;31.10;18.13;;;13.00;99.90;;;;;;4894186;29;20204;-66
2021/06/25 04:43:33;;;;;;;29.63;17.80;;;13.10;99.90;;;;;;4890187;29;20692;-66
2021/06/25 04:46:01;;;;;;;31.97;19.27;;;13.10;99.90;;;;;;4890979;29;20768;-66
2021/06/25 04:48:30;;;;;;;29.70;18.70;;;13.10;99.90;;;;;;4891553;29;20204;-66
2021/06/25 04:50:58;;;;;;;29.00;18.23;;;13.10;99.90;;;;;;4890401;29;20233;-66
2021/06/25 04:53:27;;;;;;;26.13;18.30;;;13.10;99.90;;;;;;4891860;29;20285;-67
2021/06/25 04:55:55;;;;;;;28.67;18.07;;;13.10;99.90;;;;;;4893695;29;20194;-66
2021/06/25 04:58:27;;;;;;;31.43;18.57;;;13.20;99.90;;;;;;4893195;29;20780;-66
2021/06/25 05:00:58;;;;;;;33.87;18.77;;;13.20;99.90;;;;;;4892753;29;20249;-66
2021/06/25 05:03:27;;;;;;;33.17;18.20;;;13.20;99.90;;;;;;4891452;29;20206;-66
2021/06/25 05:05:55;;;;;;;30.27;18.33;;;13.30;99.90;;;;;;4892297;29;20202;-66
2021/06/25 05:08:23;;;;;;;34.00;18.30;;;13.30;99.90;;;;;;4888527;29;20188;-66
2021/06/25 05:10:51;;;;;;;29.33;17.63;;;13.30;99.90;;;;;;4892421;29;20289;-66
2021/06/25 05:13:20;;;;;;;29.43;17.63;;;13.40;99.90;;;;;;4900464;29;20309;-66
2021/06/25 05:15:49;;;;;;;29.73;17.40;;;13.40;99.90;;;;;;4886325;29;20209;-66
2021/06/25 05:18:21;;;;;;;32.47;18.13;;;13.40;99.90;;;;;;4891924;29;20226;-66
2021/06/25 05:21:09;;;;;;;30.53;17.60;;;13.50;99.90;;;;;;4886459;29;20202;-66
2021/06/25 05:23:37;;;;;;;27.27;17.47;;;13.50;99.90;;;;;;4901044;29;20193;-66
2021/06/25 05:26:08;;;;;;;29.80;17.43;;;13.60;99.90;;;;;;4893530;29;20202;-66
2021/06/25 05:28:36;;;;;;;26.53;16.57;;;13.70;99.90;;;;;;4898885;29;20277;-66
2021/06/25 05:31:04;;;;;;;32.40;17.93;;;13.70;99.90;;;;;;4892989;29;20281;-66
2021/06/25 05:33:34;;;;;;;30.37;18.43;;;13.70;99.90;;;;;;4892675;29;20214;-66
2021/06/25 05:36:03;;;;;;;28.97;16.77;;;13.80;99.90;;;;;;4893247;29;20207;-66
2021/06/25 05:38:31;;;;;;;26.73;16.13;;;13.80;99.90;;;;;;4891367;29;20595;-67
2021/06/25 05:40:59;;;;;;;25.87;16.03;;;13.80;99.90;;;;;;4891511;29;20194;-66
2021/06/25 05:43:28;;;;;;;26.27;16.23;;;13.80;99.90;;;;;;4892293;29;20668;-67
2021/06/25 05:45:56;;;;;;;30.83;16.13;;;13.90;99.90;;;;;;4892328;29;20293;-67
2021/06/25 05:48:24;;;;;;;24.93;16.67;;;13.90;99.90;;;;;;4888530;29;20200;-66
2021/06/25 05:50:54;;;;;;;30.07;16.27;;;14.00;99.90;;;;;;4883879;29;20190;-67
2021/06/25 05:53:22;;;;;;;25.40;15.57;;;14.00;99.90;;;;;;4889515;29;20202;-67
2021/06/25 05:55:51;;;;;;;25.23;16.07;;;14.10;99.90;;;;;;4891534;29;20300;-67
2021/06/25 05:58:19;;;;;;;25.97;16.00;;;14.10;99.90;;;;;;4892046;29;20221;-66
2021/06/25 06:00:47;;;;;;;27.50;14.90;;;14.30;99.90;;;;;;4890373;29;20859;-67
2021/06/25 06:03:16;;;;;;;26.07;16.20;;;14.50;99.90;;;;;;4890712;29;20252;-67
2021/06/25 06:05:44;;;;;;;22.63;14.63;;;14.80;99.90;;;;;;4897105;29;20201;-67
2021/06/25 06:08:14;;;;;;;22.40;14.90;;;15.10;99.90;;;;;;4894391;29;20195;-67
2021/06/25 06:10:42;;;;;;;21.77;14.00;;;15.40;99.90;;;;;;4891695;29;20296;-67
2021/06/25 06:13:11;;;;;;;18.50;13.43;;;15.70;99.90;;;;;;4895283;29;20286;-67
2021/06/25 06:15:39;;;;;;;18.47;13.03;;;16.10;99.90;;;;;;4893860;29;20263;-67
2021/06/25 06:18:08;;;;;;;21.53;13.60;;;16.50;99.90;;;;;;4889413;29;20753;-67
2021/06/25 06:20:37;;;;;;;20.70;13.90;;;16.40;99.90;;;;;;4897538;29;20254;-67
2021/06/25 06:31:24;;;;;;;18.20;13.07;;;16.10;99.90;;;;;;4911037;29;20202;-67
2021/06/25 06:33:55;;;;;;;18.03;13.13;;;16.20;99.90;;;;;;4897811;29;20676;-67
2021/06/25 06:36:28;;;;;;;19.30;12.50;;;16.20;99.90;;;;;;4894886;29;20200;-67
2021/06/25 06:38:57;;;;;;;17.90;11.97;;;16.00;99.90;;;;;;4896824;29;20258;-67
2021/06/25 06:41:28;;;;;;;18.67;13.20;;;16.10;99.90;;;;;;4896693;29;20217;-67
2021/06/25 06:43:57;;;;;;;21.10;12.60;;;16.00;99.90;;;;;;4897574;29;20289;-67
2021/06/25 06:46:26;;;;;;;16.67;11.87;;;15.90;99.90;;;;;;4894880;29;20210;-67
2021/06/25 06:48:55;;;;;;;20.13;12.77;;;15.90;99.90;;;;;;4896679;29;20669;-67
2021/06/25 06:51:24;;;;;;;17.37;12.17;;;15.90;99.90;;;;;;4895983;29;20214;-67
2021/06/25 06:53:54;;;;;;;20.40;12.73;;;16.00;99.90;;;;;;4892711;29;20234;-66
2021/06/25 06:56:24;;;;;;;18.77;12.50;;;16.00;99.90;;;;;;4896091;29;20230;-67
2021/06/25 06:58:54;;;;;;;18.60;11.87;;;16.00;99.90;;;;;;4897328;29;20727;-67
2021/06/25 07:01:25;;;;;;;20.70;12.90;;;16.00;99.90;;;;;;4894684;29;20234;-67
2021/06/25 07:04:13;;;;;;;18.53;12.43;;;16.10;99.90;;;;;;4895783;29;20250;-67
2021/06/25 07:06:41;;;;;;;17.43;11.60;;;16.20;99.90;;;;;;4892849;29;20284;-67
2021/06/25 07:09:09;;;;;;;19.03;11.63;;;16.20;99.90;;;;;;4886000;29;20230;-67
2021/06/25 07:11:37;;;;;;;15.60;11.40;;;16.20;99.90;;;;;;4877473;29;20195;-67
2021/06/25 07:14:07;;;;;;;17.77;11.40;;;16.40;99.90;;;;;;4895909;29;20285;-67
2021/06/25 07:16:35;;;;;;;18.50;11.70;;;16.50;99.90;;;;;;4895354;29;20297;-67
2021/06/25 07:19:04;;;;;;;16.57;11.50;;;16.40;99.90;;;;;;4892418;29;20686;-67
2021/06/25 07:21:33;;;;;;;16.87;11.90;;;16.40;99.90;;;;;;4895201;29;20218;-67
2021/06/25 07:24:02;;;;;;;16.90;11.03;;;16.30;99.90;;;;;;4894382;29;20190;-67
2021/06/25 07:26:30;;;;;;;13.70;10.73;;;16.30;99.90;;;;;;4895848;29;20666;-67
2021/06/25 07:28:59;;;;;;;18.30;11.33;;;16.30;99.90;;;;;;4896080;29;20231;-67
2021/06/25 07:31:28;;;;;;;16.13;11.50;;;16.30;99.90;;;;;;4886731;29;20203;-66
2021/06/25 07:33:57;;;;;;;18.20;11.13;;;16.30;99.90;;;;;;4888998;29;20248;-67
2021/06/25 07:36:25;;;;;;;15.03;10.47;;;16.30;99.90;;;;;;4895378;29;20297;-67
2021/06/25 07:38:54;;;;;;;14.73;10.60;;;16.40;99.90;;;;;;4896125;29;20246;-67
2021/06/25 07:41:22;;;;;;;16.23;10.80;;;16.20;99.90;;;;;;4895983;29;20214;-66
2021/06/25 07:43:50;;;;;;;14.43;10.47;;;16.20;99.90;;;;;;4895129;29;20198;-67
2021/06/25 07:46:19;;;;;;;18.30;10.93;;;16.20;99.90;;;;;;4895184;29;20668;-67
2021/06/25 07:48:48;;;;;;;14.63;10.60;;;16.20;99.90;;;;;;4892288;29;20325;-67
2021/06/25 07:51:17;;;;;;;16.43;11.10;;;16.30;99.90;;;;;;4895516;29;20210;-67
2021/06/25 07:53:45;;;;;;;14.80;10.30;;;16.50;99.90;;;;;;4891805;29;20297;-67
2021/06/25 07:56:14;;;;;;;15.17;10.20;;;16.80;99.90;;;;;;4893202;29;20261;-67
2021/06/25 07:58:43;;;;;;;12.37;9.43;;;17.00;99.90;;;;;;4894787;29;20250;-67
2021/06/25 08:01:11;;;;;;;15.70;9.70;;;17.20;99.90;;;;;;4893879;29;20329;-67
2021/06/25 08:03:40;;;;;;;15.47;9.57;;;17.00;99.90;;;;;;4894482;29;20297;-67
2021/06/25 08:06:11;;;;;;;14.27;10.03;;;17.00;99.90;;;;;;4893238;29;20196;-67
2021/06/25 08:08:40;;;;;;;13.53;9.20;;;17.20;99.90;;;;;;4894523;29;20733;-67
2021/06/25 08:11:08;;;;;;;13.73;9.57;;;17.40;99.90;;;;;;4893198;29;20194;-67
2021/06/25 08:13:36;;;;;;;13.63;9.23;;;17.40;99.90;;;;;;4889139;29;20196;-68
2021/06/25 08:16:05;;;;;;;12.07;9.00;;;17.50;99.90;;;;;;4893418;29;20198;-67
2021/06/25 08:18:34;;;;;;;12.33;9.53;;;17.50;99.90;;;;;;4886234;29;20191;-67
2021/06/25 08:21:02;;;;;;;12.07;9.47;;;17.40;99.90;;;;;;4894427;29;20676;-67
2021/06/25 08:23:35;;;;;;;11.63;9.63;;;17.40;99.90;;;;;;4894623;29;20201;-67
2021/06/25 08:26:04;;;;;;;12.33;9.37;;;17.20;99.90;;;;;;4887179;29;20291;-67
2021/06/25 08:28:32;;;;;;;15.50;10.07;;;17.20;99.90;;;;;;4904893;29;20202;-67
2021/06/25 08:31:00;;;;;;;14.27;9.70;;;17.20;99.90;;;;;;4894839;29;20202;-67
2021/06/25 08:33:29;;;;;;;16.57;10.13;;;17.30;99.90;;;;;;4893736;29;20199;-66
2021/06/25 08:35:57;;;;;;;14.93;9.90;;;17.40;99.90;;;;;;4894664;29;20217;-67
2021/06/25 08:38:25;;;;;;;12.97;9.90;;;17.40;99.90;;;;;;4894437;29;20260;-66
2021/06/25 08:40:57;;;;;;;12.87;10.07;;;17.60;99.90;;;;;;4886610;29;20284;-67
2021/06/25 08:43:27;;;;;;;15.37;9.50;;;17.80;99.90;;;;;;4888832;29;20208;-66
2021/06/25 08:45:55;;;;;;;15.33;9.60;;;17.70;99.90;;;;;;4893476;29;20329;-67
2021/06/25 08:48:26;;;;;;;12.30;9.73;;;17.70;99.90;;;;;;4894923;29;20198;-67
2021/06/25 08:50:56;;;;;;;14.07;9.57;;;17.80;99.90;;;;;;4891852;29;20272;-67
2021/06/25 08:53:25;;;;;;;12.90;9.57;;;17.70;99.90;;;;;;4889092;29;20293;-66
2021/06/25 08:55:55;;;;;;;10.97;9.23;;;17.60;99.90;;;;;;4895179;29;20293;-67
2021/06/25 08:58:24;;;;;;;12.70;9.43;;;17.70;99.90;;;;;;4893430;29;20815;-67
2021/06/25 09:00:54;;;;;;;12.13;9.50;;;17.70;99.90;;;;;;4891028;29;20261;-67
2021/06/25 09:03:23;;;;;;;12.83;9.80;;;17.80;99.90;;;;;;4895043;29;20947;-67
2021/06/25 09:05:52;;;;;;;14.43;9.53;;;17.80;99.90;;;;;;4888523;29;20270;-67
2021/06/25 09:08:29;;;;;;;15.50;9.10;;;17.80;99.90;;;;;;4890818;29;20667;-67
2021/06/25 09:11:00;;;;;;;12.00;8.63;;;17.80;99.90;;;;;;4894836;29;20206;-67
2021/06/25 09:13:34;;;;;;;15.47;9.43;;;17.80;99.90;;;;;;4884945;29;20197;-66
2021/06/25 09:16:18;;;;;;;11.60;9.10;;;17.80;99.90;;;;;;4893965;29;20201;-67
2021/06/25 09:18:57;;;;;;;10.83;8.87;;;17.70;99.90;;;;;;4883919;29;20207;-67
2021/06/25 09:21:26;;;;;;;11.13;9.27;;;17.60;99.90;;;;;;4888480;29;20239;-67
2021/06/25 09:23:56;;;;;;;13.57;9.63;;;17.50;99.90;;;;;;4906876;29;20280;-67
2021/06/25 09:26:35;;;;;;;15.20;9.40;;;17.40;99.90;;;;;;4893009;29;20544;-66
2021/06/25 09:29:17;;;;;;;14.53;10.40;;;17.50;99.90;;;;;;4894496;29;20200;-67
2021/06/25 09:31:45;;;;;;;15.83;9.60;;;17.50;99.90;;;;;;4883190;29;20205;-67
2021/06/25 09:34:14;;;;;;;11.83;9.30;;;17.40;99.90;;;;;;4892491;29;20199;-67
2021/06/25 09:36:43;;;;;;;15.33;10.43;;;17.50;99.90;;;;;;4891667;29;20194;-67
2021/06/25 09:39:12;;;;;;;12.73;9.20;;;17.50;99.90;;;;;;4892349;29;20269;-67
2021/06/25 09:41:44;;;;;;;11.37;9.20;;;17.50;99.90;;;;;;4892456;29;20222;-67
2021/06/25 09:44:17;;;;;;;13.47;8.90;;;17.50;99.90;;;;;;4893186;29;20203;-67
2021/06/25 09:46:49;;;;;;;13.03;9.30;;;17.60;99.90;;;;;;4891710;29;20732;-67
2021/06/25 09:49:26;;;;;;;11.47;9.73;;;17.50;99.90;;;;;;4893109;29;20204;-67
2021/06/25 09:51:55;;;;;;;12.43;9.20;;;17.50;99.90;;;;;;4892964;29;20762;-68
2021/06/25 09:54:24;;;;;;;13.57;9.43;;;17.50;99.90;;;;;;4891378;29;20901;-67
2021/06/25 09:57:04;;;;;;;11.93;9.90;;;17.50;99.90;;;;;;4892392;29;20646;-67
2021/06/25 09:59:41;;;;;;;13.03;9.60;;;17.40;99.90;;;;;;4892248;29;20223;-67
2021/06/25 10:02:26;;;;;;;12.97;9.90;;;17.50;99.90;;;;;;4891117;29;20267;-67
2021/06/25 10:04:57;;;;;;;13.93;10.10;;;17.40;99.90;;;;;;4893547;29;20293;-67
2021/06/25 10:07:27;;;;;;;14.17;10.00;;;17.40;99.90;;;;;;4886899;29;20210;-67
2021/06/25 10:09:58;;;;;;;14.93;10.00;;;17.40;99.90;;;;;;4893234;29;20221;-67
2021/06/25 10:12:28;;;;;;;12.17;10.37;;;17.40;99.90;;;;;;4891450;29;20290;-67
2021/06/25 10:14:56;;;;;;;12.63;9.63;;;17.50;99.90;;;;;;4893575;29;20192;-67
2021/06/25 10:17:28;;;;;;;14.40;9.90;;;17.40;99.90;;;;;;4892260;29;20288;-67
2021/06/25 10:20:05;;;;;;;13.03;10.10;;;17.40;99.90;;;;;;4892671;29;20222;-67
2021/06/25 10:22:35;;;;;;;11.73;9.67;;;17.50;99.90;;;;;;4888895;29;20235;-67
2021/06/25 10:25:06;;;;;;;11.10;9.90;;;17.60;99.90;;;;;;4891955;29;20209;-67
2021/06/25 10:27:36;;;;;;;14.20;10.50;;;17.70;99.90;;;;;;4892162;29;20567;-67
2021/06/25 10:30:06;;;;;;;12.70;10.20;;;17.70;99.90;;;;;;4893829;29;20199;-67
2021/06/25 10:32:38;;;;;;;15.07;11.17;;;17.60;99.90;;;;;;4892984;29;20699;-67
2021/06/25 10:35:11;;;;;;;16.70;10.60;;;17.60;99.90;;;;;;4894262;29;20207;-67
2021/06/25 10:37:41;;;;;;;11.90;9.93;;;17.60;99.90;;;;;;4887670;29;20226;-67
2021/06/25 10:40:24;;;;;;;17.90;10.97;;;17.70;99.90;;;;;;4889601;29;20248;-67
2021/06/25 10:42:55;;;;;;;13.07;10.43;;;17.60;99.90;;;;;;4889310;29;20292;-67
2021/06/25 10:45:39;;;;;;;14.67;11.03;;;17.60;99.90;;;;;;4892011;29;20232;-67
2021/06/25 10:48:08;;;;;;;15.80;10.20;;;17.60;99.90;;;;;;4890567;29;20814;-67
2021/06/25 10:50:36;;;;;;;12.77;10.63;;;17.60;99.90;;;;;;4892388;29;20204;-67
2021/06/25 10:53:17;;;;;;;11.30;9.83;;;17.50;99.90;;;;;;4890711;29;20198;-67
2021/06/25 10:56:05;;;;;;;11.27;9.60;;;17.60;99.90;;;;;;4892855;29;20263;-67
2021/06/25 10:58:35;;;;;;;12.90;9.77;;;17.60;99.90;;;;;;4893777;29;20289;-67
2021/06/25 11:01:05;;;;;;;14.07;9.53;;;17.70;99.90;;;;;;4887941;29;20323;-67
2021/06/25 11:03:42;;;;;;;14.20;9.90;;;17.80;99.90;;;;;;4893365;29;20207;-67
2021/06/25 11:06:53;;;;;;;13.07;10.10;;;17.90;99.90;;;;;;4897027;29;20627;-67
2021/06/25 11:09:23;;;;;;;11.63;9.00;;;17.90;99.90;;;;;;4895938;29;20298;-67
2021/06/25 11:12:20;;;;;;;14.07;9.57;;;17.70;99.90;;;;;;4893844;29;20236;-67
2021/06/25 11:14:55;;;;;;;11.30;9.10;;;17.70;99.90;;;;;;4896607;29;20218;-67
2021/06/25 11:17:47;;;;;;;12.07;9.83;;;17.60;99.90;;;;;;4895476;29;20284;-67
2021/06/25 11:20:21;;;;;;;13.47;9.07;;;17.60;99.90;;;;;;4894951;29;20270;-67
2021/06/25 11:23:08;;;;;;;17.90;9.43;;;17.70;99.90;;;;;;4896783;29;20259;-67
2021/06/25 11:25:45;;;;;;;12.27;8.87;;;17.80;99.90;;;;;;4887931;29;20237;-67
2021/06/25 11:28:25;;;;;;;11.73;8.90;;;17.90;99.90;;;;;;4892882;29;20239;-67
2021/06/25 11:31:29;;;;;;;11.87;9.37;;;18.10;99.90;;;;;;4898903;29;20202;-67
2021/06/25 11:34:02;;;;;;;13.03;9.00;;;18.30;99.90;;;;;;4891819;29;20194;-67
2021/06/25 11:36:51;;;;;;;10.23;8.67;;;18.50;99.90;;;;;;4892489;29;20696;-67
2021/06/25 11:39:28;;;;;;;12.40;8.53;;;18.90;99.90;;;;;;4895981;29;20202;-67
2021/06/25 11:41:58;;;;;;;9.17;8.03;;;19.20;99.90;;;;;;4895837;29;20226;-67
2021/06/25 11:44:29;;;;;;;9.50;8.57;;;19.60;99.90;;;;;;4894190;29;20577;-67
2021/06/25 11:47:00;;;;;;;10.07;8.97;;;19.90;99.90;;;;;;4896578;29;20246;-67
2021/06/25 11:49:39;;;;;;;13.87;8.63;;;20.30;99.90;;;;;;4895157;29;20202;-67
2021/06/25 11:52:10;;;;;;;11.73;8.47;;;20.30;99.90;;;;;;4886608;29;20194;-68
2021/06/25 11:54:40;;;;;;;9.63;8.63;;;20.20;99.90;;;;;;4893023;29;20205;-67
2021/06/25 11:57:20;;;;;;;12.20;8.63;;;20.10;99.90;;;;;;4895310;29;20793;-66
2021/06/25 12:00:05;;;;;;;9.63;8.57;;;20.10;99.90;;;;;;4895534;29;20292;-67
2021/06/25 12:02:43;;;;;;;9.53;8.57;;;20.10;99.90;;;;;;4894022;29;20238;-66
2021/06/25 12:05:14;;;;;;;10.07;8.93;;;20.10;99.90;;;;;;4894404;29;20824;-67
2021/06/25 12:07:43;;;;;;;10.20;8.43;;;20.20;99.90;;;;;;4889253;29;20630;-67
2021/06/25 12:10:16;;;;;;;9.23;8.30;;;20.30;99.90;;;;;;4891723;29;20198;-67
2021/06/25 12:12:45;;;;;;;9.13;8.23;;;20.10;99.90;;;;;;4891177;29;20269;-68
2021/06/25 12:15:15;;;;;;;12.40;9.03;;;20.30;99.90;;;;;;4895472;29;20202;-67
2021/06/25 12:17:45;;;;;;;12.27;9.80;;;20.50;99.90;;;;;;4893599;29;20229;-67
2021/06/25 12:20:20;;;;;;;11.80;8.77;;;20.70;99.90;;;;;;4896108;29;20810;-67
2021/06/25 12:22:54;;;;;;;11.07;9.87;;;20.70;99.90;;;;;;4895271;29;20277;-67
2021/06/25 12:25:31;;;;;;;13.50;9.67;;;20.60;99.90;;;;;;4889089;29;20271;-68
2021/06/25 12:28:00;;;;;;;14.13;10.20;;;20.40;99.90;;;;;;4885540;29;20207;-67
2021/06/25 12:30:28;;;;;;;14.20;10.07;;;20.30;99.90;;;;;;4892621;29;20286;-67
2021/06/25 12:33:01;;;;;;;15.03;10.07;;;20.10;99.90;;;;;;4886114;29;20218;-67
2021/06/25 12:35:32;;;;;;;11.60;9.90;;;19.90;99.90;;;;;;4893454;29;20297;-67
2021/06/25 12:38:04;;;;;;;11.03;9.80;;;19.70;99.90;;;;;;4892482;29;20289;-67
2021/06/25 12:40:53;;;;;;;13.30;9.57;;;19.70;99.90;;;;;;4890844;29;20233;-67
2021/06/25 12:43:27;;;;;;;10.13;9.13;;;19.70;99.90;;;;;;4886488;29;20190;-67
2021/06/25 12:45:58;;;;;;;10.03;8.80;;;19.70;99.90;;;;;;4889622;29;20198;-67
2021/06/25 12:48:32;;;;;;;10.30;9.30;;;19.60;99.90;;;;;;4890841;29;20202;-67
2021/06/25 12:51:04;;;;;;;10.80;9.80;;;19.60;99.90;;;;;;4889561;29;20197;-67
2021/06/25 12:53:35;;;;;;;11.80;10.13;;;19.60;99.90;;;;;;4886310;29;20653;-67
2021/06/25 12:56:07;;;;;;;12.03;10.33;;;19.60;99.90;;;;;;4879696;29;20229;-68
2021/06/25 12:58:38;;;;;;;11.73;10.27;;;19.70;99.90;;;;;;4888252;29;20246;-67
2021/06/25 13:01:09;;;;;;;16.17;12.60;;;19.70;99.90;;;;;;4893790;29;20289;-67